WetterOnline ( https://www.wetteronline.de )

Wetter aktuell Beimerstetten

Aktuelles Wetter: Ulm-Mähringen (592m)

6-stündlich | Neueste Meldungen
Ortszeit Temperatur Wetter
Do, 27.01. 7:00 -6.1° C bedeckt
Do, 27.01. 1:00 -3.7° C bewölkt
Mi, 26.01. 19:00 -2.2° C wolkig
Mi, 26.01. 13:00 1.0° C leicht bewölkt
Mi, 26.01. 7:00 -6.0° C wolkenlos
Mi, 26.01. 1:00 -4.0° C Nebel
Di, 25.01. 19:00 -1.9° C Nebel
Di, 25.01. 13:00 -1.7° C bedeckt
Ortszeit Temperatur Wetter
Do, 27.01. 7:10 -6.2° C bedeckt
Do, 27.01. 7:00 -6.1° C bedeckt
Do, 27.01. 6:50 -6.1° C bedeckt
Do, 27.01. 6:40 -6.3° C Dunst
Do, 27.01. 6:30 -6.5° C bewölkt
Do, 27.01. 6:20 -6.5° C Dunst
Do, 27.01. 6:00 -6.4° C wolkig
Do, 27.01. 5:30 -6.8° C wolkig
Do, 27.01. 5:00 -6.1° C wolkig
Do, 27.01. 4:30 -5.5° C wolkig
Ortszeit Relative Feuchte Sichtweite
Do, 27.01. 7:00 91% 8 km
Do, 27.01. 1:00 91% 9 km
Mi, 26.01. 19:00 89% 10 km
Mi, 26.01. 13:00 82% 10 km
Mi, 26.01. 7:00 92% 10 km
Mi, 26.01. 1:00 96% 0.2 km
Di, 25.01. 19:00 96% <100 m
Di, 25.01. 13:00 96% 4.1 km
Ortszeit Relative Feuchte Sichtweite
Do, 27.01. 7:10 90% -
Do, 27.01. 7:00 91% 8 km
Do, 27.01. 6:50 91% -
Do, 27.01. 6:40 92% -
Do, 27.01. 6:30 91% 7 km
Do, 27.01. 6:20 91% -
Do, 27.01. 6:00 92% 7 km
Do, 27.01. 5:30 90% 7 km
Do, 27.01. 5:00 93% 7 km
Do, 27.01. 4:30 93% 6 km
Ortszeit Niederschlagsmenge Niederschlagsart
Do, 27.01. 7:00 0.0 l/m2 in 12 Std. -
Do, 27.01. 1:00 0.0 l/m2 in 6 Std. -
Mi, 26.01. 19:00 0.0 l/m2 in 12 Std. -
Mi, 26.01. 13:00 0.0 l/m2 in 6 Std. -
Mi, 26.01. 7:00 0.0 l/m2 in 12 Std. -
Mi, 26.01. 1:00 0.0 l/m2 in 6 Std. -
Di, 25.01. 19:00 0.0 l/m2 in 12 Std. -
Di, 25.01. 13:00 0.0 l/m2 in 6 Std. -
Ortszeit Niederschlagsmenge Niederschlagsart
Do, 27.01. 7:10 keine Meldung -
Do, 27.01. 7:00 0.0 l/m2 in 1 Std. -
Do, 27.01. 6:50 keine Meldung -
Do, 27.01. 6:40 keine Meldung -
Do, 27.01. 6:30 0.0 l/m2 in 1 Std. -
Do, 27.01. 6:20 keine Meldung -
Do, 27.01. 6:00 0.0 l/m2 in 1 Std. -
Do, 27.01. 5:30 0.0 l/m2 in 1 Std. -
Do, 27.01. 5:00 0.0 l/m2 in 1 Std. -
Do, 27.01. 4:30 0.0 l/m2 in 1 Std. -
Ortszeit Stärke Spitze Richtung
km/h Bft. km/h Grad Sektor
Do, 27.01. 7:00 6 1 11 240° SW
Do, 27.01. 1:00 6 1 19 250° W
Mi, 26.01. 19:00 7 2 36 320° NW
Mi, 26.01. 13:00 4 1 14 130° SO
Mi, 26.01. 7:00 4 1 7 30° NO
Mi, 26.01. 1:00 2 1 13 350° N
Di, 25.01. 19:00 4 1 14 250° W
Di, 25.01. 13:00 11 2 22 230° SW
Ortszeit Stärke Spitze Richtung
km/h Bft. km/h Grad Sektor
Do, 27.01. 7:10 4 1 - 250° W
Do, 27.01. 7:00 6 1 11 240° SW
Do, 27.01. 6:50 6 1 - 240° SW
Do, 27.01. 6:40 2 1 - 250° W
Do, 27.01. 6:30 6 1 11 240° SW
Do, 27.01. 6:20 6 1 - 240° SW
Do, 27.01. 6:00 7 2 11 240° SW
Do, 27.01. 5:30 4 1 7 270° W
Do, 27.01. 5:00 4 1 7 270° W
Do, 27.01. 4:30 4 1 7 360° N
Ortszeit Untergrenze Bedeckung Gattung
total tief tief mittel hoch
Do, 27.01. 7:00 6900 m 8/8 8/8 - - -
Do, 27.01. 1:00 5400 m 7/8 7/8 - - -
Mi, 26.01. 19:00 120 m 8/8 2/8 - - -
Mi, 26.01. 13:00 390 m 4/8 4/8 - - -
Mi, 26.01. 7:00 - 0/8 0/8 - - -
Mi, 26.01. 1:00 <30 m 1/8 0/8 - - -
Di, 25.01. 19:00 <30 m 8/8 0/8 - - -
Di, 25.01. 13:00 60 m 8/8 8/8 - - -
Ortszeit Bedeckungsgrad in Achtel und Wolkenuntergrenze
Do, 27.01. 7:10 8
Do, 27.01. 7:00 8(6900m) 8(8100m) 8(9000m)
Do, 27.01. 6:50 8(6900m) 8(8100m) 8(9000m)
Do, 27.01. 6:40 8
Do, 27.01. 6:30 6(6900m) 8(8400m) 8(9000m)
Do, 27.01. 6:20 6(6900m) 8(8400m) 8(9000m)
Do, 27.01. 6:00 7(8400m) 8(9000m) 8(10500m)
Do, 27.01. 5:30 6(8400m) 8(9000m) 8(9000m)
Do, 27.01. 5:00 7(7500m) 8(8400m) 8(9000m)
Do, 27.01. 4:30 5(9000m) 7(9000m)
Ortszeit Luftdruck NN (hPa) Tendenz (hPa in 3 Std.)
Do, 27.01. 7:00 1032 - 0,8
Do, 27.01. 1:00 1033 - 1,0
Mi, 26.01. 19:00 1034 + 0,9
Mi, 26.01. 13:00 1033 - 0,3
Mi, 26.01. 7:00 1034 - 0,1
Mi, 26.01. 1:00 1034 - 0,9
Di, 25.01. 19:00 1034 + 0,1
Di, 25.01. 13:00 1035 - 0,4
Ortszeit Luftdruck NN (hPa) Tendenz (hPa in 3 Std.)
Do, 27.01. 7:10 1032 keine Meldung
Do, 27.01. 7:00 1032 - 0,8
Do, 27.01. 6:50 1032 keine Meldung
Do, 27.01. 6:40 1032 keine Meldung
Do, 27.01. 6:30 1032 - 1,0
Do, 27.01. 6:20 1032 keine Meldung
Do, 27.01. 6:00 1032 - 1,0
Do, 27.01. 5:30 1033 - 0,6
Do, 27.01. 5:00 1033 - 0,3
Do, 27.01. 4:30 1033 - 0,4
Ortszeit Schneehöhe (cm)
Do, 27.01. 7:00 0
Do, 27.01. 1:00 0
Mi, 26.01. 19:00 0
Mi, 26.01. 13:00 0
Mi, 26.01. 7:00 0
Mi, 26.01. 1:00 0
Di, 25.01. 19:00 0
Di, 25.01. 13:00 0
Ortszeit Schneehöhe (cm)
Do, 27.01. 7:10 0
Do, 27.01. 7:00 0
Do, 27.01. 6:50 0
Do, 27.01. 6:40 0
Do, 27.01. 6:30 0
Do, 27.01. 6:20 0
Do, 27.01. 6:00 0
Do, 27.01. 5:30 0
Do, 27.01. 5:00 0
Do, 27.01. 4:30 0
Link zu dieser Seite / Seite empfehlen

Das Wetter in ...